sensor_id;sensor_type;location;lat;lon;timestamp;P1;durP1;ratioP1;P2;durP2;ratioP2
66542;SDS011;53395;37.360;-122.046;2023-11-19T00:02:26;4.78;;;0.70;;
66542;SDS011;53395;37.360;-122.046;2023-11-19T00:05:10;1.95;;;0.75;;
66542;SDS011;53395;37.360;-122.046;2023-11-19T00:07:57;3.70;;;0.57;;
66542;SDS011;53395;37.360;-122.046;2023-11-19T00:10:42;4.35;;;0.50;;
66542;SDS011;53395;37.360;-122.046;2023-11-19T00:13:26;3.78;;;0.65;;
66542;SDS011;53395;37.360;-122.046;2023-11-19T00:16:11;2.42;;;0.52;;
66542;SDS011;53395;37.360;-122.046;2023-11-19T00:18:56;5.68;;;0.75;;
66542;SDS011;53395;37.360;-122.046;2023-11-19T00:21:40;6.10;;;0.80;;
66542;SDS011;53395;37.360;-122.046;2023-11-19T00:24:25;3.95;;;0.60;;
66542;SDS011;53395;37.360;-122.046;2023-11-19T00:27:09;2.97;;;0.57;;
66542;SDS011;53395;37.360;-122.046;2023-11-19T00:29:54;5.57;;;0.80;;
66542;SDS011;53395;37.360;-122.046;2023-11-19T00:32:38;4.00;;;0.82;;
66542;SDS011;53395;37.360;-122.046;2023-11-19T00:35:23;5.05;;;0.68;;
66542;SDS011;53395;37.360;-122.046;2023-11-19T00:38:07;5.32;;;1.00;;
66542;SDS011;53395;37.360;-122.046;2023-11-19T00:40:52;5.32;;;0.80;;
66542;SDS011;53395;37.360;-122.046;2023-11-19T00:43:36;5.32;;;0.80;;
66542;SDS011;53395;37.360;-122.046;2023-11-19T00:46:21;5.65;;;0.65;;
66542;SDS011;53395;37.360;-122.046;2023-11-19T00:49:06;4.70;;;0.60;;
66542;SDS011;53395;37.360;-122.046;2023-11-19T00:51:50;3.10;;;0.50;;
66542;SDS011;53395;37.360;-122.046;2023-11-19T00:54:35;7.18;;;1.08;;
66542;SDS011;53395;37.360;-122.046;2023-11-19T00:57:19;7.95;;;0.95;;
66542;SDS011;53395;37.360;-122.046;2023-11-19T01:00:04;3.90;;;0.93;;
66542;SDS011;53395;37.360;-122.046;2023-11-19T01:02:57;5.45;;;0.63;;
66542;SDS011;53395;37.360;-122.046;2023-11-19T01:05:42;4.50;;;0.80;;
66542;SDS011;53395;37.360;-122.046;2023-11-19T01:08:27;4.93;;;0.80;;
66542;SDS011;53395;37.360;-122.046;2023-11-19T01:11:21;6.03;;;0.80;;
66542;SDS011;53395;37.360;-122.046;2023-11-19T01:14:06;4.13;;;0.80;;
66542;SDS011;53395;37.360;-122.046;2023-11-19T01:16:51;4.68;;;0.68;;
66542;SDS011;53395;37.360;-122.046;2023-11-19T01:19:37;5.63;;;1.00;;
66542;SDS011;53395;37.360;-122.046;2023-11-19T01:22:22;4.32;;;0.77;;
66542;SDS011;53395;37.360;-122.046;2023-11-19T01:25:07;4.72;;;1.00;;
66542;SDS011;53395;37.360;-122.046;2023-11-19T01:27:51;5.78;;;0.90;;
66542;SDS011;53395;37.360;-122.046;2023-11-19T01:30:36;5.40;;;0.68;;
66542;SDS011;53395;37.360;-122.046;2023-11-19T01:33:20;4.07;;;0.77;;
66542;SDS011;53395;37.360;-122.046;2023-11-19T01:36:05;6.15;;;1.08;;
66542;SDS011;53395;37.360;-122.046;2023-11-19T01:38:52;3.45;;;0.80;;
66542;SDS011;53395;37.360;-122.046;2023-11-19T01:41:36;8.20;;;1.33;;
66542;SDS011;53395;37.360;-122.046;2023-11-19T01:44:21;7.88;;;0.90;;
66542;SDS011;53395;37.360;-122.046;2023-11-19T01:47:05;4.47;;;0.73;;
66542;SDS011;53395;37.360;-122.046;2023-11-19T01:49:50;5.68;;;1.00;;
66542;SDS011;53395;37.360;-122.046;2023-11-19T01:52:35;8.38;;;1.27;;
66542;SDS011;53395;37.360;-122.046;2023-11-19T01:55:22;8.80;;;1.15;;
66542;SDS011;53395;37.360;-122.046;2023-11-19T01:58:08;6.03;;;0.90;;
66542;SDS011;53395;37.360;-122.046;2023-11-19T02:00:52;8.48;;;1.02;;
66542;SDS011;53395;37.360;-122.046;2023-11-19T02:03:37;7.75;;;1.33;;
66542;SDS011;53395;37.360;-122.046;2023-11-19T02:06:22;7.88;;;0.95;;
66542;SDS011;53395;37.360;-122.046;2023-11-19T02:09:07;10.38;;;1.48;;
66542;SDS011;53395;37.360;-122.046;2023-11-19T02:11:52;4.93;;;0.98;;
66542;SDS011;53395;37.360;-122.046;2023-11-19T02:14:38;7.53;;;1.00;;
66542;SDS011;53395;37.360;-122.046;2023-11-19T02:17:26;5.78;;;1.25;;
66542;SDS011;53395;37.360;-122.046;2023-11-19T02:20:11;6.50;;;1.08;;
66542;SDS011;53395;37.360;-122.046;2023-11-19T02:22:58;8.57;;;0.90;;
66542;SDS011;53395;37.360;-122.046;2023-11-19T02:25:44;6.93;;;1.10;;
66542;SDS011;53395;37.360;-122.046;2023-11-19T02:28:33;9.88;;;1.33;;
66542;SDS011;53395;37.360;-122.046;2023-11-19T02:31:18;8.23;;;1.02;;
66542;SDS011;53395;37.360;-122.046;2023-11-19T02:34:02;8.38;;;1.10;;
66542;SDS011;53395;37.360;-122.046;2023-11-19T02:36:47;11.35;;;1.63;;
66542;SDS011;53395;37.360;-122.046;2023-11-19T02:39:31;11.25;;;1.88;;
66542;SDS011;53395;37.360;-122.046;2023-11-19T02:42:15;8.75;;;1.48;;
66542;SDS011;53395;37.360;-122.046;2023-11-19T02:45:00;7.50;;;1.33;;
66542;SDS011;53395;37.360;-122.046;2023-11-19T02:47:44;10.40;;;1.60;;
66542;SDS011;53395;37.360;-122.046;2023-11-19T02:50:28;8.13;;;1.10;;
66542;SDS011;53395;37.360;-122.046;2023-11-19T02:53:13;9.38;;;1.27;;
66542;SDS011;53395;37.360;-122.046;2023-11-19T02:55:58;6.20;;;1.30;;
66542;SDS011;53395;37.360;-122.046;2023-11-19T02:58:50;7.80;;;1.25;;
66542;SDS011;53395;37.360;-122.046;2023-11-19T03:04:19;8.35;;;1.10;;
66542;SDS011;53395;37.360;-122.046;2023-11-19T03:07:07;12.73;;;1.63;;
66542;SDS011;53395;37.360;-122.046;2023-11-19T03:09:51;6.57;;;1.15;;
66542;SDS011;53395;37.360;-122.046;2023-11-19T03:12:35;5.95;;;1.10;;
66542;SDS011;53395;37.360;-122.046;2023-11-19T03:15:19;9.40;;;1.10;;
66542;SDS011;53395;37.360;-122.046;2023-11-19T03:18:05;8.48;;;1.50;;
66542;SDS011;53395;37.360;-122.046;2023-11-19T03:20:50;6.97;;;1.27;;
66542;SDS011;53395;37.360;-122.046;2023-11-19T03:23:34;10.18;;;1.33;;
66542;SDS011;53395;37.360;-122.046;2023-11-19T03:26:19;10.07;;;1.30;;
66542;SDS011;53395;37.360;-122.046;2023-11-19T03:29:03;10.18;;;1.55;;
66542;SDS011;53395;37.360;-122.046;2023-11-19T03:31:48;6.15;;;1.55;;
66542;SDS011;53395;37.360;-122.046;2023-11-19T03:34:33;8.85;;;1.02;;
66542;SDS011;53395;37.360;-122.046;2023-11-19T03:37:18;6.03;;;1.45;;
66542;SDS011;53395;37.360;-122.046;2023-11-19T03:40:03;8.98;;;1.27;;
66542;SDS011;53395;37.360;-122.046;2023-11-19T03:42:48;9.45;;;1.55;;
66542;SDS011;53395;37.360;-122.046;2023-11-19T03:45:32;11.10;;;1.40;;
66542;SDS011;53395;37.360;-122.046;2023-11-19T03:48:16;8.00;;;1.20;;
66542;SDS011;53395;37.360;-122.046;2023-11-19T03:51:01;9.55;;;1.40;;
66542;SDS011;53395;37.360;-122.046;2023-11-19T03:53:45;8.38;;;1.42;;
66542;SDS011;53395;37.360;-122.046;2023-11-19T03:56:30;7.72;;;1.35;;
66542;SDS011;53395;37.360;-122.046;2023-11-19T03:59:15;6.30;;;1.30;;
66542;SDS011;53395;37.360;-122.046;2023-11-19T04:01:59;11.15;;;1.33;;
66542;SDS011;53395;37.360;-122.046;2023-11-19T04:04:46;9.85;;;1.65;;
66542;SDS011;53395;37.360;-122.046;2023-11-19T04:07:32;11.13;;;1.30;;
66542;SDS011;53395;37.360;-122.046;2023-11-19T04:10:16;9.68;;;1.77;;
66542;SDS011;53395;37.360;-122.046;2023-11-19T04:13:01;7.43;;;1.58;;
66542;SDS011;53395;37.360;-122.046;2023-11-19T04:15:46;9.60;;;1.08;;
66542;SDS011;53395;37.360;-122.046;2023-11-19T04:18:30;8.15;;;1.83;;
66542;SDS011;53395;37.360;-122.046;2023-11-19T04:21:16;8.95;;;1.73;;
66542;SDS011;53395;37.360;-122.046;2023-11-19T04:24:00;6.85;;;1.30;;
66542;SDS011;53395;37.360;-122.046;2023-11-19T04:26:45;9.10;;;1.33;;
66542;SDS011;53395;37.360;-122.046;2023-11-19T04:29:30;9.85;;;1.58;;
66542;SDS011;53395;37.360;-122.046;2023-11-19T04:32:15;13.07;;;1.83;;
66542;SDS011;53395;37.360;-122.046;2023-11-19T04:34:59;6.90;;;1.30;;
66542;SDS011;53395;37.360;-122.046;2023-11-19T04:37:44;10.57;;;1.30;;
66542;SDS011;53395;37.360;-122.046;2023-11-19T04:40:29;7.43;;;1.23;;
66542;SDS011;53395;37.360;-122.046;2023-11-19T04:43:13;6.93;;;1.45;;
66542;SDS011;53395;37.360;-122.046;2023-11-19T04:45:57;15.00;;;1.58;;
66542;SDS011;53395;37.360;-122.046;2023-11-19T04:48:42;8.30;;;1.33;;
66542;SDS011;53395;37.360;-122.046;2023-11-19T04:51:26;11.05;;;1.67;;
66542;SDS011;53395;37.360;-122.046;2023-11-19T04:54:11;11.35;;;1.40;;
66542;SDS011;53395;37.360;-122.046;2023-11-19T04:56:56;4.65;;;1.00;;
66542;SDS011;53395;37.360;-122.046;2023-11-19T04:59:40;9.38;;;1.33;;
66542;SDS011;53395;37.360;-122.046;2023-11-19T05:02:25;5.55;;;1.00;;
66542;SDS011;53395;37.360;-122.046;2023-11-19T05:05:09;8.60;;;0.90;;
66542;SDS011;53395;37.360;-122.046;2023-11-19T05:07:54;4.68;;;0.80;;
66542;SDS011;53395;37.360;-122.046;2023-11-19T05:10:39;7.88;;;1.00;;
66542;SDS011;53395;37.360;-122.046;2023-11-19T05:13:24;6.55;;;1.10;;
66542;SDS011;53395;37.360;-122.046;2023-11-19T05:16:08;5.25;;;0.90;;
66542;SDS011;53395;37.360;-122.046;2023-11-19T05:18:53;4.57;;;0.88;;
66542;SDS011;53395;37.360;-122.046;2023-11-19T05:21:38;7.63;;;1.20;;
66542;SDS011;53395;37.360;-122.046;2023-11-19T05:24:22;8.40;;;1.00;;
66542;SDS011;53395;37.360;-122.046;2023-11-19T05:27:07;6.30;;;1.10;;
66542;SDS011;53395;37.360;-122.046;2023-11-19T05:29:51;6.35;;;1.05;;
66542;SDS011;53395;37.360;-122.046;2023-11-19T05:32:36;8.45;;;1.13;;
66542;SDS011;53395;37.360;-122.046;2023-11-19T05:35:20;14.35;;;1.63;;
66542;SDS011;53395;37.360;-122.046;2023-11-19T05:38:05;5.57;;;1.35;;
66542;SDS011;53395;37.360;-122.046;2023-11-19T05:40:50;10.25;;;1.45;;
66542;SDS011;53395;37.360;-122.046;2023-11-19T05:43:34;9.30;;;1.60;;
66542;SDS011;53395;37.360;-122.046;2023-11-19T05:46:19;8.23;;;1.50;;
66542;SDS011;53395;37.360;-122.046;2023-11-19T05:49:04;14.82;;;1.70;;
66542;SDS011;53395;37.360;-122.046;2023-11-19T05:51:48;10.43;;;1.13;;
66542;SDS011;53395;37.360;-122.046;2023-11-19T05:54:33;15.15;;;1.70;;
66542;SDS011;53395;37.360;-122.046;2023-11-19T05:57:21;16.13;;;1.88;;
66542;SDS011;53395;37.360;-122.046;2023-11-19T06:00:09;16.92;;;1.98;;
66542;SDS011;53395;37.360;-122.046;2023-11-19T06:02:57;13.82;;;1.50;;
66542;SDS011;53395;37.360;-122.046;2023-11-19T06:05:41;22.13;;;2.60;;
66542;SDS011;53395;37.360;-122.046;2023-11-19T06:08:28;18.40;;;2.53;;
66542;SDS011;53395;37.360;-122.046;2023-11-19T06:11:13;27.00;;;2.55;;
66542;SDS011;53395;37.360;-122.046;2023-11-19T06:14:02;14.43;;;1.80;;
66542;SDS011;53395;37.360;-122.046;2023-11-19T06:16:49;15.48;;;2.33;;
66542;SDS011;53395;37.360;-122.046;2023-11-19T06:19:35;19.10;;;2.30;;
66542;SDS011;53395;37.360;-122.046;2023-11-19T06:22:20;20.27;;;2.95;;
66542;SDS011;53395;37.360;-122.046;2023-11-19T06:25:04;24.48;;;3.38;;
66542;SDS011;53395;37.360;-122.046;2023-11-19T06:27:51;15.85;;;2.55;;
66542;SDS011;53395;37.360;-122.046;2023-11-19T06:30:36;19.67;;;2.60;;
66542;SDS011;53395;37.360;-122.046;2023-11-19T06:33:21;19.42;;;2.90;;
66542;SDS011;53395;37.360;-122.046;2023-11-19T06:36:06;26.05;;;2.85;;
66542;SDS011;53395;37.360;-122.046;2023-11-19T06:38:51;18.63;;;2.90;;
66542;SDS011;53395;37.360;-122.046;2023-11-19T06:41:36;23.63;;;2.92;;
66542;SDS011;53395;37.360;-122.046;2023-11-19T06:44:21;24.77;;;3.53;;
66542;SDS011;53395;37.360;-122.046;2023-11-19T06:47:06;30.35;;;3.85;;
66542;SDS011;53395;37.360;-122.046;2023-11-19T06:49:50;30.30;;;3.53;;
66542;SDS011;53395;37.360;-122.046;2023-11-19T06:52:35;32.90;;;4.80;;
66542;SDS011;53395;37.360;-122.046;2023-11-19T06:55:21;21.65;;;3.10;;
66542;SDS011;53395;37.360;-122.046;2023-11-19T06:58:06;24.05;;;3.05;;
66542;SDS011;53395;37.360;-122.046;2023-11-19T07:00:51;31.10;;;3.72;;
66542;SDS011;53395;37.360;-122.046;2023-11-19T07:03:35;24.63;;;4.15;;
66542;SDS011;53395;37.360;-122.046;2023-11-19T07:06:20;22.08;;;3.20;;
66542;SDS011;53395;37.360;-122.046;2023-11-19T07:09:06;23.33;;;3.13;;
66542;SDS011;53395;37.360;-122.046;2023-11-19T07:11:54;24.88;;;3.38;;
66542;SDS011;53395;37.360;-122.046;2023-11-19T07:14:39;23.85;;;2.92;;
66542;SDS011;53395;37.360;-122.046;2023-11-19T07:17:24;32.58;;;3.08;;
66542;SDS011;53395;37.360;-122.046;2023-11-19T07:20:09;23.08;;;3.10;;
66542;SDS011;53395;37.360;-122.046;2023-11-19T07:22:55;17.33;;;2.95;;
66542;SDS011;53395;37.360;-122.046;2023-11-19T07:25:40;31.25;;;4.13;;
66542;SDS011;53395;37.360;-122.046;2023-11-19T07:28:25;27.15;;;3.20;;
66542;SDS011;53395;37.360;-122.046;2023-11-19T07:31:09;23.55;;;2.58;;
66542;SDS011;53395;37.360;-122.046;2023-11-19T07:33:54;26.10;;;3.20;;
66542;SDS011;53395;37.360;-122.046;2023-11-19T07:36:38;25.13;;;2.92;;
66542;SDS011;53395;37.360;-122.046;2023-11-19T07:39:23;27.58;;;3.83;;
66542;SDS011;53395;37.360;-122.046;2023-11-19T07:42:07;24.73;;;3.13;;
66542;SDS011;53395;37.360;-122.046;2023-11-19T07:44:53;21.30;;;2.83;;
66542;SDS011;53395;37.360;-122.046;2023-11-19T07:47:39;28.88;;;3.28;;
66542;SDS011;53395;37.360;-122.046;2023-11-19T07:50:23;20.95;;;3.28;;
66542;SDS011;53395;37.360;-122.046;2023-11-19T07:53:09;28.83;;;3.10;;
66542;SDS011;53395;37.360;-122.046;2023-11-19T07:55:54;20.38;;;2.80;;
66542;SDS011;53395;37.360;-122.046;2023-11-19T07:58:39;17.90;;;2.30;;
66542;SDS011;53395;37.360;-122.046;2023-11-19T08:01:23;24.67;;;3.17;;
66542;SDS011;53395;37.360;-122.046;2023-11-19T08:04:08;21.27;;;2.80;;
66542;SDS011;53395;37.360;-122.046;2023-11-19T08:06:52;23.42;;;2.75;;
66542;SDS011;53395;37.360;-122.046;2023-11-19T08:09:37;21.20;;;2.25;;
66542;SDS011;53395;37.360;-122.046;2023-11-19T08:12:22;18.38;;;2.45;;
66542;SDS011;53395;37.360;-122.046;2023-11-19T08:15:07;18.85;;;2.95;;
66542;SDS011;53395;37.360;-122.046;2023-11-19T08:17:51;20.20;;;2.65;;
66542;SDS011;53395;37.360;-122.046;2023-11-19T08:20:36;25.40;;;3.67;;
66542;SDS011;53395;37.360;-122.046;2023-11-19T08:23:20;24.65;;;3.15;;
66542;SDS011;53395;37.360;-122.046;2023-11-19T08:26:04;18.98;;;3.08;;
66542;SDS011;53395;37.360;-122.046;2023-11-19T08:28:49;22.15;;;2.85;;
66542;SDS011;53395;37.360;-122.046;2023-11-19T08:31:34;22.30;;;3.00;;
66542;SDS011;53395;37.360;-122.046;2023-11-19T08:34:18;25.75;;;2.85;;
66542;SDS011;53395;37.360;-122.046;2023-11-19T08:37:03;20.23;;;2.75;;
66542;SDS011;53395;37.360;-122.046;2023-11-19T08:39:48;15.73;;;2.40;;
66542;SDS011;53395;37.360;-122.046;2023-11-19T08:42:33;21.67;;;2.75;;
66542;SDS011;53395;37.360;-122.046;2023-11-19T08:45:17;22.05;;;2.40;;
66542;SDS011;53395;37.360;-122.046;2023-11-19T08:48:02;17.70;;;2.35;;
66542;SDS011;53395;37.360;-122.046;2023-11-19T08:50:46;22.23;;;2.47;;
66542;SDS011;53395;37.360;-122.046;2023-11-19T08:53:31;13.20;;;2.05;;
66542;SDS011;53395;37.360;-122.046;2023-11-19T08:56:15;18.88;;;2.83;;
66542;SDS011;53395;37.360;-122.046;2023-11-19T08:59:00;23.75;;;2.75;;
66542;SDS011;53395;37.360;-122.046;2023-11-19T09:01:44;21.60;;;2.85;;
66542;SDS011;53395;37.360;-122.046;2023-11-19T09:04:29;19.15;;;2.75;;
66542;SDS011;53395;37.360;-122.046;2023-11-19T09:07:14;16.00;;;2.08;;
66542;SDS011;53395;37.360;-122.046;2023-11-19T09:09:58;24.52;;;2.22;;
66542;SDS011;53395;37.360;-122.046;2023-11-19T09:12:42;22.38;;;2.50;;
66542;SDS011;53395;37.360;-122.046;2023-11-19T09:15:27;20.20;;;2.50;;
66542;SDS011;53395;37.360;-122.046;2023-11-19T09:18:11;15.20;;;2.35;;
66542;SDS011;53395;37.360;-122.046;2023-11-19T09:20:56;15.93;;;2.28;;
66542;SDS011;53395;37.360;-122.046;2023-11-19T09:23:40;18.60;;;2.85;;
66542;SDS011;53395;37.360;-122.046;2023-11-19T09:26:25;18.73;;;2.63;;
66542;SDS011;53395;37.360;-122.046;2023-11-19T09:29:10;19.42;;;2.63;;
66542;SDS011;53395;37.360;-122.046;2023-11-19T09:31:55;15.55;;;2.33;;
66542;SDS011;53395;37.360;-122.046;2023-11-19T09:34:40;15.82;;;2.10;;
66542;SDS011;53395;37.360;-122.046;2023-11-19T09:37:24;21.55;;;2.75;;
66542;SDS011;53395;37.360;-122.046;2023-11-19T09:40:08;20.38;;;2.08;;
66542;SDS011;53395;37.360;-122.046;2023-11-19T09:42:56;14.48;;;2.72;;
66542;SDS011;53395;37.360;-122.046;2023-11-19T09:45:49;19.33;;;2.63;;
66542;SDS011;53395;37.360;-122.046;2023-11-19T09:48:34;21.63;;;2.60;;
66542;SDS011;53395;37.360;-122.046;2023-11-19T09:51:19;25.25;;;2.70;;
66542;SDS011;53395;37.360;-122.046;2023-11-19T09:54:03;22.95;;;2.72;;
66542;SDS011;53395;37.360;-122.046;2023-11-19T09:56:48;17.67;;;2.83;;
66542;SDS011;53395;37.360;-122.046;2023-11-19T09:59:33;15.32;;;2.13;;
66542;SDS011;53395;37.360;-122.046;2023-11-19T10:02:17;20.77;;;2.35;;
66542;SDS011;53395;37.360;-122.046;2023-11-19T10:05:08;15.43;;;2.03;;
66542;SDS011;53395;37.360;-122.046;2023-11-19T10:07:53;15.32;;;2.70;;
66542;SDS011;53395;37.360;-122.046;2023-11-19T10:10:39;21.13;;;2.60;;
66542;SDS011;53395;37.360;-122.046;2023-11-19T10:13:27;21.88;;;2.75;;
66542;SDS011;53395;37.360;-122.046;2023-11-19T10:16:12;18.60;;;2.10;;
66542;SDS011;53395;37.360;-122.046;2023-11-19T10:18:56;23.80;;;2.50;;
66542;SDS011;53395;37.360;-122.046;2023-11-19T10:21:41;20.98;;;2.28;;
66542;SDS011;53395;37.360;-122.046;2023-11-19T10:24:32;18.70;;;2.30;;
66542;SDS011;53395;37.360;-122.046;2023-11-19T10:27:17;18.55;;;2.20;;
66542;SDS011;53395;37.360;-122.046;2023-11-19T10:30:02;24.70;;;2.53;;
66542;SDS011;53395;37.360;-122.046;2023-11-19T10:32:52;22.38;;;2.55;;
66542;SDS011;53395;37.360;-122.046;2023-11-19T10:36:04;18.58;;;1.90;;
66542;SDS011;53395;37.360;-122.046;2023-11-19T10:38:55;21.45;;;2.65;;
66542;SDS011;53395;37.360;-122.046;2023-11-19T10:41:40;18.40;;;3.22;;
66542;SDS011;53395;37.360;-122.046;2023-11-19T10:44:32;20.73;;;2.45;;
66542;SDS011;53395;37.360;-122.046;2023-11-19T10:47:19;19.02;;;3.15;;
66542;SDS011;53395;37.360;-122.046;2023-11-19T10:50:04;19.65;;;2.13;;
66542;SDS011;53395;37.360;-122.046;2023-11-19T10:52:50;24.67;;;2.80;;
66542;SDS011;53395;37.360;-122.046;2023-11-19T10:55:37;19.90;;;2.70;;
66542;SDS011;53395;37.360;-122.046;2023-11-19T10:58:24;21.73;;;2.72;;
66542;SDS011;53395;37.360;-122.046;2023-11-19T11:01:11;21.88;;;2.47;;
66542;SDS011;53395;37.360;-122.046;2023-11-19T11:03:57;19.90;;;2.45;;
66542;SDS011;53395;37.360;-122.046;2023-11-19T11:09:27;25.95;;;2.58;;
66542;SDS011;53395;37.360;-122.046;2023-11-19T11:12:12;21.25;;;2.65;;
66542;SDS011;53395;37.360;-122.046;2023-11-19T11:14:56;18.85;;;2.28;;
66542;SDS011;53395;37.360;-122.046;2023-11-19T11:17:41;20.40;;;2.50;;
66542;SDS011;53395;37.360;-122.046;2023-11-19T11:20:31;25.08;;;3.72;;
66542;SDS011;53395;37.360;-122.046;2023-11-19T11:26:32;28.83;;;2.95;;
66542;SDS011;53395;37.360;-122.046;2023-11-19T11:38:36;18.85;;;2.88;;
66542;SDS011;53395;37.360;-122.046;2023-11-19T11:41:24;14.80;;;1.80;;
66542;SDS011;53395;37.360;-122.046;2023-11-19T11:44:09;24.75;;;2.88;;
66542;SDS011;53395;37.360;-122.046;2023-11-19T11:46:55;17.08;;;1.88;;
66542;SDS011;53395;37.360;-122.046;2023-11-19T11:49:39;22.30;;;2.75;;
66542;SDS011;53395;37.360;-122.046;2023-11-19T11:52:24;15.15;;;2.00;;
66542;SDS011;53395;37.360;-122.046;2023-11-19T11:55:10;22.63;;;2.15;;
66542;SDS011;53395;37.360;-122.046;2023-11-19T11:57:55;15.98;;;1.58;;
66542;SDS011;53395;37.360;-122.046;2023-11-19T12:00:40;18.15;;;2.20;;
66542;SDS011;53395;37.360;-122.046;2023-11-19T12:03:26;11.27;;;1.52;;
66542;SDS011;53395;37.360;-122.046;2023-11-19T12:06:11;17.08;;;2.40;;
66542;SDS011;53395;37.360;-122.046;2023-11-19T12:08:59;18.40;;;2.13;;
66542;SDS011;53395;37.360;-122.046;2023-11-19T12:11:47;16.90;;;2.10;;
66542;SDS011;53395;37.360;-122.046;2023-11-19T12:20:19;16.08;;;2.05;;
66542;SDS011;53395;37.360;-122.046;2023-11-19T12:23:04;17.27;;;2.58;;
66542;SDS011;53395;37.360;-122.046;2023-11-19T12:25:49;19.77;;;2.47;;
66542;SDS011;53395;37.360;-122.046;2023-11-19T12:28:33;13.63;;;2.30;;
66542;SDS011;53395;37.360;-122.046;2023-11-19T12:31:19;21.95;;;2.17;;
66542;SDS011;53395;37.360;-122.046;2023-11-19T12:34:06;14.57;;;2.50;;
66542;SDS011;53395;37.360;-122.046;2023-11-19T12:36:52;16.10;;;2.05;;
66542;SDS011;53395;37.360;-122.046;2023-11-19T12:39:37;21.48;;;2.22;;
66542;SDS011;53395;37.360;-122.046;2023-11-19T12:42:21;20.20;;;1.88;;
66542;SDS011;53395;37.360;-122.046;2023-11-19T12:45:05;17.92;;;2.08;;
66542;SDS011;53395;37.360;-122.046;2023-11-19T12:47:50;15.73;;;1.83;;
66542;SDS011;53395;37.360;-122.046;2023-11-19T12:50:57;17.83;;;2.15;;
66542;SDS011;53395;37.360;-122.046;2023-11-19T12:53:51;17.38;;;2.08;;
66542;SDS011;53395;37.360;-122.046;2023-11-19T12:56:38;13.55;;;2.20;;
66542;SDS011;53395;37.360;-122.046;2023-11-19T12:59:25;15.48;;;1.77;;
66542;SDS011;53395;37.360;-122.046;2023-11-19T13:02:11;17.02;;;2.42;;
66542;SDS011;53395;37.360;-122.046;2023-11-19T13:04:55;17.45;;;2.00;;
66542;SDS011;53395;37.360;-122.046;2023-11-19T13:07:40;12.63;;;1.90;;
66542;SDS011;53395;37.360;-122.046;2023-11-19T13:10:24;12.13;;;1.90;;
66542;SDS011;53395;37.360;-122.046;2023-11-19T13:13:09;16.48;;;1.90;;
66542;SDS011;53395;37.360;-122.046;2023-11-19T13:15:53;13.20;;;1.85;;
66542;SDS011;53395;37.360;-122.046;2023-11-19T13:18:37;14.40;;;1.70;;
66542;SDS011;53395;37.360;-122.046;2023-11-19T13:21:22;9.52;;;1.08;;
66542;SDS011;53395;37.360;-122.046;2023-11-19T13:24:07;12.50;;;1.80;;
66542;SDS011;53395;37.360;-122.046;2023-11-19T13:26:51;15.90;;;1.75;;
66542;SDS011;53395;37.360;-122.046;2023-11-19T13:29:35;15.02;;;1.48;;
66542;SDS011;53395;37.360;-122.046;2023-11-19T13:32:19;15.70;;;1.55;;
66542;SDS011;53395;37.360;-122.046;2023-11-19T13:35:04;7.72;;;1.05;;
66542;SDS011;53395;37.360;-122.046;2023-11-19T13:37:49;12.95;;;1.30;;
66542;SDS011;53395;37.360;-122.046;2023-11-19T13:40:34;10.48;;;1.42;;
66542;SDS011;53395;37.360;-122.046;2023-11-19T13:43:18;15.63;;;1.70;;
66542;SDS011;53395;37.360;-122.046;2023-11-19T13:46:03;12.27;;;1.48;;
66542;SDS011;53395;37.360;-122.046;2023-11-19T13:48:47;13.50;;;1.77;;
66542;SDS011;53395;37.360;-122.046;2023-11-19T13:51:33;12.25;;;1.35;;
66542;SDS011;53395;37.360;-122.046;2023-11-19T13:54:17;10.40;;;1.23;;
66542;SDS011;53395;37.360;-122.046;2023-11-19T13:57:03;10.95;;;2.47;;
66542;SDS011;53395;37.360;-122.046;2023-11-19T13:59:48;11.38;;;1.40;;
66542;SDS011;53395;37.360;-122.046;2023-11-19T14:02:32;13.57;;;1.67;;
66542;SDS011;53395;37.360;-122.046;2023-11-19T14:05:17;10.30;;;1.52;;
66542;SDS011;53395;37.360;-122.046;2023-11-19T14:08:01;7.72;;;0.77;;
66542;SDS011;53395;37.360;-122.046;2023-11-19T14:10:46;9.00;;;1.13;;
66542;SDS011;53395;37.360;-122.046;2023-11-19T14:13:30;11.05;;;1.10;;
66542;SDS011;53395;37.360;-122.046;2023-11-19T14:16:15;12.90;;;1.60;;
66542;SDS011;53395;37.360;-122.046;2023-11-19T14:19:00;12.45;;;1.02;;
66542;SDS011;53395;37.360;-122.046;2023-11-19T14:21:44;13.65;;;1.40;;
66542;SDS011;53395;37.360;-122.046;2023-11-19T14:24:29;7.03;;;0.80;;
66542;SDS011;53395;37.360;-122.046;2023-11-19T14:27:14;7.07;;;1.13;;
66542;SDS011;53395;37.360;-122.046;2023-11-19T14:29:58;6.50;;;1.02;;
66542;SDS011;53395;37.360;-122.046;2023-11-19T14:32:43;10.40;;;1.20;;
66542;SDS011;53395;37.360;-122.046;2023-11-19T14:35:32;11.48;;;1.73;;
66542;SDS011;53395;37.360;-122.046;2023-11-19T14:38:17;16.17;;;1.20;;
66542;SDS011;53395;37.360;-122.046;2023-11-19T14:41:02;7.22;;;1.20;;
66542;SDS011;53395;37.360;-122.046;2023-11-19T14:43:48;10.70;;;1.17;;
66542;SDS011;53395;37.360;-122.046;2023-11-19T14:46:33;13.77;;;1.50;;
66542;SDS011;53395;37.360;-122.046;2023-11-19T14:49:17;10.15;;;1.40;;
66542;SDS011;53395;37.360;-122.046;2023-11-19T14:52:03;13.25;;;1.50;;
66542;SDS011;53395;37.360;-122.046;2023-11-19T14:54:47;8.63;;;1.40;;
66542;SDS011;53395;37.360;-122.046;2023-11-19T14:57:32;11.52;;;1.27;;
66542;SDS011;53395;37.360;-122.046;2023-11-19T15:00:16;5.60;;;1.10;;
66542;SDS011;53395;37.360;-122.046;2023-11-19T15:03:01;6.43;;;1.17;;
66542;SDS011;53395;37.360;-122.046;2023-11-19T15:05:46;11.43;;;1.58;;
66542;SDS011;53395;37.360;-122.046;2023-11-19T15:08:30;10.00;;;1.23;;
66542;SDS011;53395;37.360;-122.046;2023-11-19T15:11:15;13.25;;;1.33;;
66542;SDS011;53395;37.360;-122.046;2023-11-19T15:13:59;12.25;;;1.10;;
66542;SDS011;53395;37.360;-122.046;2023-11-19T15:16:45;9.57;;;1.17;;
66542;SDS011;53395;37.360;-122.046;2023-11-19T15:19:30;18.35;;;1.70;;
66542;SDS011;53395;37.360;-122.046;2023-11-19T15:22:15;10.73;;;1.50;;
66542;SDS011;53395;37.360;-122.046;2023-11-19T15:24:59;8.48;;;1.23;;
66542;SDS011;53395;37.360;-122.046;2023-11-19T15:27:44;13.20;;;1.58;;
66542;SDS011;53395;37.360;-122.046;2023-11-19T15:30:28;11.35;;;1.25;;
66542;SDS011;53395;37.360;-122.046;2023-11-19T15:33:12;6.80;;;1.17;;
66542;SDS011;53395;37.360;-122.046;2023-11-19T15:35:57;9.82;;;1.20;;
66542;SDS011;53395;37.360;-122.046;2023-11-19T15:38:41;5.82;;;1.10;;
66542;SDS011;53395;37.360;-122.046;2023-11-19T15:41:26;10.77;;;1.30;;
66542;SDS011;53395;37.360;-122.046;2023-11-19T15:44:11;12.20;;;1.15;;
66542;SDS011;53395;37.360;-122.046;2023-11-19T15:46:55;11.55;;;1.55;;
66542;SDS011;53395;37.360;-122.046;2023-11-19T15:49:40;11.93;;;1.88;;
66542;SDS011;53395;37.360;-122.046;2023-11-19T15:52:25;10.57;;;1.40;;
66542;SDS011;53395;37.360;-122.046;2023-11-19T15:55:10;11.40;;;1.65;;
66542;SDS011;53395;37.360;-122.046;2023-11-19T15:57:57;12.48;;;1.80;;
66542;SDS011;53395;37.360;-122.046;2023-11-19T16:00:43;13.93;;;1.77;;
66542;SDS011;53395;37.360;-122.046;2023-11-19T16:03:29;10.95;;;1.30;;
66542;SDS011;53395;37.360;-122.046;2023-11-19T16:06:15;14.90;;;1.42;;
66542;SDS011;53395;37.360;-122.046;2023-11-19T16:09:02;9.68;;;1.52;;